Time;durP1;ratioP1;P1;durP2;ratioP2;P2;SDS_P1;SDS_P2;PMS_P1;PMS_P2;Temp;Humidity;BMP_temperature;BMP_pressure;BME280_temperature;BME280_humidity;BME280_pressure;Samples;Min_cycle;Max_cycle;Signal;HPM_P1;HPM_P2
2021/11/09 00:01:58;;;;;;;9.68;5.50;;;;;;;9.43;58.49;100459.51;1713822;83;21041;-67
2021/11/09 00:04:28;;;;;;;9.53;5.25;;;;;;;9.44;58.45;100468.66;1711950;83;21536;-67
2021/11/09 00:07:03;;;;;;;12.75;5.72;;;;;;;9.46;58.36;100465.25;1711814;83;21007;-67
2021/11/09 00:09:27;;;;;;;9.63;5.28;;;;;;;9.49;58.38;100468.03;1709369;83;21134;-67
2021/11/09 00:11:52;;;;;;;12.15;5.85;;;;;;;9.52;58.41;100466.80;1709979;82;21008;-68
2021/11/09 00:14:18;;;;;;;15.00;6.25;;;;;;;9.53;58.45;100469.80;1711512;83;20952;-69
2021/11/09 00:16:45;;;;;;;10.40;5.33;;;;;;;9.55;58.34;100470.39;1710814;83;20948;-68
2021/11/09 00:19:11;;;;;;;11.97;5.40;;;;;;;9.55;58.33;100475.22;1713994;83;20932;-70
2021/11/09 00:21:39;;;;;;;10.50;5.10;;;;;;;9.55;58.29;100485.93;1710562;83;22967;-70
2021/11/09 00:24:05;;;;;;;11.83;5.25;;;;;;;9.53;58.36;100484.52;1715269;83;21490;-69
2021/11/09 00:26:33;;;;;;;11.90;5.23;;;;;;;9.50;58.33;100479.58;1710155;83;21510;-70
2021/11/09 00:29:02;;;;;;;11.00;5.67;;;;;;;9.45;58.34;100479.69;1711348;83;21759;-69
2021/11/09 00:31:29;;;;;;;14.45;5.50;;;;;;;9.42;58.41;100486.80;1713042;83;21119;-70
2021/11/09 00:33:55;;;;;;;10.25;5.58;;;;;;;9.39;58.34;100489.88;1710377;83;22021;-68
2021/11/09 00:36:23;;;;;;;12.60;5.03;;;;;;;9.36;58.41;100489.46;1710758;83;21021;-68
2021/11/09 00:38:49;;;;;;;8.90;5.22;;;;;;;9.31;58.50;100487.41;1711801;83;21028;-69
2021/11/09 00:41:16;;;;;;;10.23;5.03;;;;;;;9.29;58.60;100481.45;1710377;83;20960;-69
2021/11/09 00:43:42;;;;;;;10.98;5.12;;;;;;;9.27;58.66;100487.50;1709315;83;21036;-70
2021/11/09 00:46:09;;;;;;;15.58;5.72;;;;;;;9.23;58.68;100487.61;1711036;83;22303;-69
2021/11/09 00:48:35;;;;;;;11.97;5.75;;;;;;;9.20;58.64;100491.54;1712646;83;20917;-69
2021/11/09 00:51:01;;;;;;;7.85;4.95;;;;;;;9.14;58.81;100492.34;1711946;83;21003;-70
2021/11/09 00:53:28;;;;;;;10.53;5.50;;;;;;;9.10;58.82;100493.27;1712410;82;20896;-70
2021/11/09 00:55:54;;;;;;;8.80;5.83;;;;;;;9.07;58.92;100491.02;1728614;81;21004;-69
2021/11/09 00:58:22;;;;;;;12.55;5.72;;;;;;;9.05;58.89;100498.40;1752840;81;21170;-68
2021/11/09 01:00:49;;;;;;;9.78;5.40;;;;;;;9.00;59.31;100501.41;1748798;81;20964;-68
2021/11/09 01:03:16;;;;;;;8.28;5.10;;;;;;;9.00;59.31;100501.41;1755074;81;21605;-68
2021/11/09 01:05:42;;;;;;;9.93;5.33;;;;;;;8.99;59.13;100498.41;1753216;81;21005;-71
2021/11/09 01:08:13;;;;;;;9.53;5.67;;;;;;;8.97;59.28;100501.29;1753008;81;20957;-70
2021/11/09 01:10:44;;;;;;;13.88;5.45;;;;;;;8.98;59.43;100500.77;1750572;81;21199;-71
2021/11/09 01:13:10;;;;;;;9.70;5.47;;;;;;;8.98;59.29;100501.61;1755222;81;21109;-70
2021/11/09 01:15:43;;;;;;;10.10;5.25;;;;;;;8.98;59.19;100502.95;1752693;81;21514;-72
2021/11/09 01:18:09;;;;;;;12.23;5.62;;;;;;;8.99;58.96;100498.41;1750566;81;20995;-70
2021/11/09 01:20:38;;;;;;;10.43;5.12;;;;;;;9.00;58.89;100492.05;1752800;81;21110;-70
2021/11/09 01:23:04;;;;;;;16.95;5.15;;;;;;;9.01;58.76;100501.69;1750371;81;21132;-70
2021/11/09 01:25:32;;;;;;;8.10;4.65;;;;;;;9.03;58.66;100503.14;1751228;81;20849;-71
2021/11/09 01:27:59;;;;;;;10.72;4.90;;;;;;;9.06;58.61;100509.94;1754851;81;20917;-71
2021/11/09 01:30:26;;;;;;;11.05;5.22;;;;;;;9.08;58.45;100510.55;1750826;81;21063;-70
2021/11/09 01:32:53;;;;;;;10.10;4.92;;;;;;;9.08;58.54;100506.04;1752091;81;21505;-70
2021/11/09 01:35:20;;;;;;;11.85;5.35;;;;;;;9.10;58.56;100507.17;1751526;81;21151;-70
2021/11/09 01:37:47;;;;;;;9.75;4.90;;;;;;;9.12;58.45;100519.81;1755402;81;20959;-67
2021/11/09 01:40:14;;;;;;;10.60;5.58;;;;;;;9.09;58.39;100511.67;1754887;81;20956;-69
2021/11/09 01:42:41;;;;;;;11.70;5.33;;;;;;;9.06;58.60;100512.09;1752957;81;20944;-70
2021/11/09 01:45:10;;;;;;;9.63;5.33;;;;;;;9.03;58.75;100513.84;1752054;81;21545;-71
2021/11/09 01:47:37;;;;;;;9.65;5.15;;;;;;;9.00;59.02;100512.09;1749686;81;21104;-66
2021/11/09 01:50:06;;;;;;;13.72;5.37;;;;;;;8.99;59.12;100509.92;1750911;81;21054;-66
2021/11/09 01:52:32;;;;;;;;;;;;;;;8.99;59.15;100513.12;1757386;81;21057;-71
2021/11/09 01:54:59;;;;;;;10.10;5.40;;;;;;;8.94;59.14;100516.41;1746952;81;20148;-69
2021/11/09 01:57:25;;;;;;;9.23;5.53;;;;;;;8.91;59.23;100512.28;1747734;81;21613;-68
2021/11/09 01:59:52;;;;;;;8.45;5.05;;;;;;;8.92;59.30;100522.45;1746257;81;21143;-67
2021/11/09 02:02:19;;;;;;;9.63;4.83;;;;;;;8.92;59.26;100521.96;1749281;81;21011;-68
2021/11/09 02:04:46;;;;;;;7.22;4.80;;;;;;;8.92;59.32;100523.30;1746769;81;20979;-69
2021/11/09 02:07:13;;;;;;;9.03;5.17;;;;;;;8.93;59.23;100522.77;1743046;81;21028;-68
2021/11/09 02:09:40;;;;;;;10.05;5.53;;;;;;;8.94;59.20;100524.42;1747222;81;20925;-67
2021/11/09 02:12:08;;;;;;;13.65;5.72;;;;;;;8.93;59.19;100532.94;1747777;81;21155;-67
2021/11/09 02:14:34;;;;;;;11.28;5.47;;;;;;;8.91;59.15;100521.64;1747449;81;21004;-66
2021/11/09 02:17:01;;;;;;;8.98;5.28;;;;;;;8.91;59.21;100527.52;1747835;81;20988;-68
2021/11/09 02:19:29;;;;;;;8.43;4.87;;;;;;;8.90;59.30;100531.20;1746880;81;21581;-67
2021/11/09 02:21:57;;;;;;;10.18;5.47;;;;;;;8.90;59.41;100535.21;1748336;81;21055;-67
2021/11/09 02:24:24;;;;;;;7.87;5.58;;;;;;;8.89;59.41;100531.73;1746829;81;21146;-68
2021/11/09 02:26:52;;;;;;;11.12;5.62;;;;;;;8.90;59.37;100533.35;1745204;81;21035;-68
2021/11/09 02:29:18;;;;;;;10.13;5.60;;;;;;;8.92;59.43;100539.34;1747332;81;22094;-68
2021/11/09 02:31:44;;;;;;;11.75;4.95;;;;;;;8.93;59.29;100537.48;1746796;81;20952;-69
2021/11/09 02:34:11;;;;;;;10.38;5.87;;;;;;;8.92;59.41;100538.00;1748455;81;21408;-67
2021/11/09 02:36:37;;;;;;;8.05;4.80;;;;;;;8.89;59.39;100533.55;1747789;81;21154;-69
2021/11/09 02:39:04;;;;;;;7.92;4.92;;;;;;;8.86;59.48;100536.14;1751347;81;20968;-67
2021/11/09 02:41:31;;;;;;;8.20;4.53;;;;;;;8.86;59.46;100536.14;1745355;81;20997;-68
2021/11/09 02:43:59;;;;;;;9.40;5.42;;;;;;;8.84;59.54;100531.49;1746487;81;21689;-68
2021/11/09 02:46:34;;;;;;;6.97;4.70;;;;;;;8.83;59.58;100531.17;1747626;81;21003;-69
2021/11/09 02:51:38;;;;;;;9.30;5.58;;;;;;;8.80;59.65;100531.58;1749624;81;20937;-68
2021/11/09 02:54:05;;;;;;;8.75;5.40;;;;;;;8.78;59.68;100532.31;1751351;81;20987;-68
2021/11/09 02:56:37;;;;;;;19.82;5.50;;;;;;;8.78;59.71;100530.97;1752071;80;20988;-69
2021/11/09 02:59:36;;;;;;;8.40;4.87;;;;;;;8.78;59.74;100532.31;1752194;81;20948;-67
2021/11/09 03:01:55;;;;;;;7.85;4.42;;;;;;;8.80;59.79;100534.78;1747381;81;21859;-69
2021/11/09 03:04:53;;;;;;;9.38;5.30;;;;;;;8.81;59.81;100535.91;1747224;81;20959;-67
2021/11/09 03:10:23;;;;;;;9.00;5.25;;;;;;;8.80;59.87;100533.44;1697801;82;21480;-67
2021/11/09 03:12:01;;;;;;;11.57;5.05;;;;;;;8.81;59.91;100542.59;1701223;83;21070;-67
2021/11/09 03:14:27;;;;;;;7.55;4.60;;;;;;;8.83;59.88;100545.06;1746941;80;21170;-67
2021/11/09 03:16:56;;;;;;;6.83;4.55;;;;;;;8.83;59.85;100549.08;1749997;81;21019;-67
2021/11/09 03:44:26;;;;;;;9.45;4.70;;;;;;;8.65;60.77;100555.81;1749627;81;20986;-68
2021/11/09 03:46:56;;;;;;;11.33;4.40;;;;;;;8.60;61.01;100556.94;1751184;81;20928;-69
2021/11/09 03:49:24;;;;;;;8.15;4.55;;;;;;;8.58;61.15;100550.95;1746928;81;21035;-70
2021/11/09 03:51:52;;;;;;;10.35;5.03;;;;;;;8.54;61.29;100554.55;1749464;81;21820;-70
2021/11/09 03:54:27;;;;;;;7.65;4.87;;;;;;;8.46;61.55;100565.92;1739142;81;21857;-70
2021/11/09 03:56:54;;;;;;;10.18;5.17;;;;;;;8.42;61.72;100569.45;1722335;81;20977;-70
2021/11/09 04:00:10;;;;;;;8.60;4.50;;;;;;;8.46;61.83;100575.27;1722031;82;21011;-70
2021/11/09 04:06:50;;;;;;;10.65;5.00;;;;;;;8.51;62.04;100576.33;1721266;82;21545;-70
2021/11/09 04:09:24;;;;;;;8.20;4.80;;;;;;;8.51;61.97;100574.15;1723717;81;21031;-70
2021/11/09 04:17:16;;;;;;;14.43;4.95;;;;;;;8.50;62.24;100565.31;1728869;82;21048;-66
2021/11/09 04:19:49;;;;;;;11.35;5.33;;;;;;;8.54;62.23;100563.09;1731805;82;21148;-66
2021/11/09 04:30:17;;;;;;;8.25;4.58;;;;;;;8.48;62.49;100581.23;1720398;82;21037;-63
2021/11/09 05:02:19;;;;;;;11.00;5.47;;;;;;;8.12;63.33;100611.64;1712030;83;21411;-66
2021/11/09 05:09:45;;;;;;;8.28;5.05;;;;;;;8.09;63.60;100616.03;1712395;83;20900;-64
2021/11/09 05:12:10;;;;;;;11.10;5.12;;;;;;;8.07;63.53;100619.72;1712441;83;21075;-64
2021/11/09 05:14:38;;;;;;;10.18;6.10;;;;;;;8.03;63.71;100627.80;1711322;83;20945;-65
2021/11/09 05:20:30;;;;;;;10.28;5.50;;;;;;;8.18;63.60;100642.38;1782764;79;21839;-63
2021/11/09 05:22:57;;;;;;;10.18;5.75;;;;;;;8.17;63.58;100647.42;1741910;80;21003;-64
2021/11/09 05:25:24;;;;;;;11.05;6.05;;;;;;;8.20;63.54;100656.38;1746404;80;21102;-65
2021/11/09 05:27:51;;;;;;;11.50;5.60;;;;;;;8.26;63.45;100660.12;1713342;81;20938;-63
2021/11/09 05:30:18;;;;;;;13.48;5.72;;;;;;;8.32;63.43;100661.16;1708299;83;21045;-64
2021/11/09 05:32:45;;;;;;;14.78;6.97;;;;;;;8.38;63.37;100669.74;1707169;83;20899;-64
2021/11/09 05:35:12;;;;;;;14.40;6.60;;;;;;;8.42;63.25;100673.64;1706278;83;21057;-63
2021/11/09 05:37:45;;;;;;;13.72;7.25;;;;;;;8.44;63.28;100674.33;1707777;83;22099;-65
2021/11/09 05:40:09;;;;;;;21.87;7.47;;;;;;;8.47;63.29;100675.27;1705477;82;20863;-63
2021/11/09 05:42:36;;;;;;;;;;;;;;;8.51;63.29;100682.37;1710956;83;20871;-63
2021/11/09 05:45:05;;;;;;;17.82;7.78;;;;;;;8.53;63.40;100697.19;1696979;84;20123;-65
2021/11/09 05:47:33;;;;;;;16.37;6.92;;;;;;;8.54;63.46;100701.52;1695478;84;20945;-64
2021/11/09 05:49:59;;;;;;;15.80;6.87;;;;;;;8.55;63.62;100703.18;1693362;84;21081;-65
2021/11/09 05:52:26;;;;;;;14.78;7.10;;;;;;;8.61;63.70;100704.73;1693979;83;20971;-64
2021/11/09 05:54:52;;;;;;;17.60;6.12;;;;;;;8.65;63.73;100697.46;1711040;83;21059;-67
2021/11/09 05:57:19;;;;;;;8.30;5.92;;;;;;;8.70;63.59;100706.22;1704744;83;21530;-64
2021/11/09 05:59:46;;;;;;;11.10;6.22;;;;;;;8.74;63.53;100705.63;1704700;83;21605;-63
2021/11/09 06:02:13;;;;;;;11.40;6.45;;;;;;;8.79;63.42;100704.20;1704781;82;21166;-64
2021/11/09 06:04:40;;;;;;;9.63;5.92;;;;;;;8.79;63.23;100685.00;1703642;83;21109;-64
2021/11/09 06:07:06;;;;;;;12.10;5.70;;;;;;;8.78;63.25;100678.52;1705018;83;20924;-63
2021/11/09 06:09:34;;;;;;;8.90;5.72;;;;;;;8.80;63.00;100677.27;1705363;83;21485;-64
2021/11/09 06:12:01;;;;;;;10.32;5.87;;;;;;;8.75;63.00;100683.75;1704765;83;20943;-64
2021/11/09 06:14:28;;;;;;;11.40;6.00;;;;;;;8.75;63.13;100679.22;1705045;83;21184;-65
2021/11/09 06:16:54;;;;;;;9.33;6.08;;;;;;;8.79;62.86;100686.34;1702376;83;21098;-64
2021/11/09 06:19:23;;;;;;;12.15;6.05;;;;;;;8.81;62.71;100693.64;1686809;83;21598;-64
2021/11/09 06:21:49;;;;;;;9.65;6.00;;;;;;;8.83;62.54;100690.24;1671667;85;21059;-67
2021/11/09 06:24:18;;;;;;;13.80;6.70;;;;;;;8.78;62.44;100694.04;1696219;83;21472;-64
2021/11/09 06:26:46;;;;;;;11.83;6.10;;;;;;;8.70;62.51;100697.70;1685739;84;21114;-63
2021/11/09 06:29:13;;;;;;;9.63;5.42;;;;;;;8.72;62.62;100705.53;1681614;85;21070;-64
2021/11/09 06:31:41;;;;;;;10.20;5.25;;;;;;;8.75;62.57;100713.15;1682698;84;21771;-65
2021/11/09 06:34:08;;;;;;;10.00;4.92;;;;;;;8.76;62.31;100722.83;1681593;85;20915;-63
2021/11/09 06:36:34;;;;;;;6.85;4.47;;;;;;;8.76;62.14;100724.98;1666484;85;21543;-66
2021/11/09 06:39:01;;;;;;;8.10;4.33;;;;;;;8.78;62.02;100727.97;1684776;84;21149;-64
2021/11/09 06:41:28;;;;;;;9.30;4.47;;;;;;;8.76;61.77;100728.17;1670384;85;21118;-63
2021/11/09 06:43:55;;;;;;;8.90;4.75;;;;;;;8.70;61.91;100723.59;1669310;85;21547;-64
2021/11/09 06:46:21;;;;;;;15.80;4.45;;;;;;;8.70;61.93;100731.61;1686261;84;21007;-64
2021/11/09 06:48:49;;;;;;;9.10;3.72;;;;;;;8.63;61.83;100734.75;1684810;83;20947;-64
2021/11/09 06:51:15;;;;;;;9.95;3.40;;;;;;;8.58;61.97;100733.52;1683152;84;21160;-64
2021/11/09 06:53:42;;;;;;;5.05;3.20;;;;;;;8.55;61.67;100727.23;1681649;84;20999;-63
2021/11/09 06:56:08;;;;;;;3.65;2.50;;;;;;;8.53;61.86;100733.78;1682690;84;21462;-63
2021/11/09 06:58:36;;;;;;;3.80;2.12;;;;;;;8.53;61.48;100741.80;1682267;84;21086;-62
2021/11/09 07:01:04;;;;;;;3.72;1.67;;;;;;;8.52;61.20;100745.48;1683115;84;20990;-62
2021/11/09 07:03:33;;;;;;;4.35;1.72;;;;;;;8.55;60.94;100753.95;1682548;84;21119;-63
2021/11/09 07:06:01;;;;;;;3.05;1.87;;;;;;;8.58;60.56;100753.56;1683911;84;21627;-63
2021/11/09 07:08:28;;;;;;;1.85;1.52;;;;;;;8.59;60.28;100750.37;1682251;84;21560;-65
2021/11/09 07:10:54;;;;;;;3.98;1.90;;;;;;;8.55;60.00;100749.10;1682423;84;20920;-63
2021/11/09 07:13:21;;;;;;;3.70;2.12;;;;;;;8.42;60.10;100753.80;1681626;84;21580;-62
2021/11/09 07:15:48;;;;;;;3.62;2.15;;;;;;;8.33;60.18;100753.15;1682342;84;21077;-62
2021/11/09 07:18:16;;;;;;;4.33;1.82;;;;;;;8.30;60.47;100766.86;1683143;84;21022;-64
2021/11/09 07:20:43;;;;;;;2.95;1.98;;;;;;;8.32;60.59;100762.17;1685018;83;21115;-62
2021/11/09 07:23:10;;;;;;;2.47;2.05;;;;;;;8.35;60.48;100771.66;1681221;84;21042;-63
2021/11/09 07:25:36;;;;;;;3.12;2.02;;;;;;;8.37;60.11;100773.09;1679568;84;21087;-63
2021/11/09 07:28:04;;;;;;;4.45;2.25;;;;;;;8.29;60.38;100771.91;1684039;84;21167;-62
2021/11/09 07:30:42;;;;;;;2.67;1.90;;;;;;;8.29;60.61;100769.73;1682355;84;21039;-63
2021/11/09 07:33:00;;;;;;;3.87;1.90;;;;;;;8.25;60.32;100775.98;1680749;84;21023;-62
2021/11/09 07:35:27;;;;;;;4.83;1.98;;;;;;;8.12;60.16;100779.87;1682658;84;21082;-64
2021/11/09 07:37:54;;;;;;;3.25;2.00;;;;;;;7.98;60.11;100783.76;1683199;84;21146;-61
2021/11/09 07:40:20;;;;;;;2.72;1.85;;;;;;;7.87;59.98;100785.59;1680098;84;21676;-64
2021/11/09 07:42:47;;;;;;;2.30;2.00;;;;;;;7.78;60.29;100799.56;1682213;84;20999;-62
2021/11/09 07:45:17;;;;;;;4.53;1.87;;;;;;;7.77;60.36;100797.90;1681711;84;20936;-61
2021/11/09 07:47:44;;;;;;;6.25;1.80;;;;;;;7.78;60.07;100805.42;1685843;84;21930;-61
2021/11/09 07:50:11;;;;;;;3.67;2.25;;;;;;;7.76;60.20;100813.62;1682798;84;21050;-61
2021/11/09 07:52:37;;;;;;;2.95;1.95;;;;;;;7.82;60.22;100817.38;1683026;84;21841;-61
2021/11/09 07:55:07;;;;;;;3.12;1.92;;;;;;;7.86;59.93;100818.62;1681353;84;21536;-60
2021/11/09 07:57:43;;;;;;;2.67;2.05;;;;;;;7.81;60.08;100819.20;1679758;84;21019;-63
2021/11/09 08:00:10;;;;;;;5.42;2.52;;;;;;;7.76;60.12;100828.30;1680297;84;21536;-60
2021/11/09 08:02:46;;;;;;;3.83;2.30;;;;;;;7.72;60.34;100828.34;1681099;84;21506;-62
2021/11/09 08:05:08;;;;;;;4.75;2.80;;;;;;;7.69;60.46;100832.21;1680816;84;20964;-60
2021/11/09 08:07:37;;;;;;;5.17;2.92;;;;;;;7.75;60.46;100836.49;1682486;84;21012;-61
2021/11/09 08:10:03;;;;;;;4.00;2.62;;;;;;;7.72;60.13;100827.83;1682090;84;21525;-62
2021/11/09 08:12:32;;;;;;;2.33;2.12;;;;;;;7.63;59.99;100844.16;1681327;84;21553;-61
2021/11/09 08:14:59;;;;;;;3.50;1.90;;;;;;;7.57;60.13;100859.06;1681447;84;21114;-61
2021/11/09 08:17:26;;;;;;;2.55;1.90;;;;;;;7.68;60.34;100859.08;1679670;84;21213;-61
2021/11/09 08:19:53;;;;;;;2.40;1.80;;;;;;;7.95;59.54;100869.58;1690487;83;20985;-61
2021/11/09 08:22:19;;;;;;;2.95;1.98;;;;;;;8.19;58.82;100871.05;1705215;83;21116;-60
2021/11/09 08:24:46;;;;;;;4.08;1.57;;;;;;;8.36;57.55;100866.30;1703840;83;21631;-62
2021/11/09 08:27:14;;;;;;;1.98;1.60;;;;;;;8.49;57.36;100882.16;1704875;83;21079;-61
2021/11/09 08:29:48;;;;;;;3.42;1.90;;;;;;;8.69;56.54;100875.66;1707023;83;21575;-62
2021/11/09 08:32:11;;;;;;;3.10;2.00;;;;;;;8.89;55.92;100885.15;1704688;83;20937;-61
2021/11/09 08:34:38;;;;;;;2.75;1.72;;;;;;;9.05;55.70;100888.05;1702232;83;21108;-61
2021/11/09 08:37:05;;;;;;;4.60;1.80;;;;;;;9.20;55.70;100886.59;1706154;83;20985;-60
2021/11/09 08:39:36;;;;;;;3.22;2.08;;;;;;;9.29;54.86;100884.09;1705747;83;21040;-61
2021/11/09 08:42:12;;;;;;;3.22;1.70;;;;;;;9.29;54.41;100888.93;1702897;83;21150;-61
2021/11/09 08:44:33;;;;;;;;;;;;;;;9.24;54.42;100898.04;1705537;83;21789;-61
2021/11/09 08:47:00;;;;;;;2.00;1.30;;;;;;;9.16;53.22;100912.08;1703059;83;20140;-61
2021/11/09 08:49:28;;;;;;;3.45;1.47;;;;;;;8.90;53.35;100907.68;1705313;83;20934;-61
2021/11/09 08:51:56;;;;;;;1.47;1.20;;;;;;;8.75;53.74;100910.45;1706239;83;20961;-61
2021/11/09 08:54:31;;;;;;;2.92;1.30;;;;;;;8.71;54.17;100918.52;1705404;83;21143;-61
2021/11/09 08:57:47;;;;;;;2.17;1.35;;;;;;;8.76;53.50;100908.09;1709252;83;20961;-60
2021/11/09 09:04:56;;;;;;;1.65;1.42;;;;;;;8.43;54.04;100915.77;1704904;83;21052;-62
2021/11/09 09:07:27;;;;;;;1.87;1.50;;;;;;;8.39;54.23;100918.50;1707214;83;21119;-63
2021/11/09 09:09:56;;;;;;;4.35;2.27;;;;;;;8.46;54.56;100923.44;1707711;83;21017;-62
2021/11/09 09:12:26;;;;;;;;;;;;;;;8.63;54.50;100913.33;1701501;83;20938;-62
2021/11/09 09:14:53;;;;;;;5.80;1.55;;;;;;;8.81;54.09;100924.08;1704260;83;20211;-67
2021/11/09 09:17:22;;;;;;;3.17;1.75;;;;;;;8.85;53.54;100931.52;1705863;83;21048;-61
2021/11/09 09:19:54;;;;;;;1.70;1.35;;;;;;;8.87;53.56;100935.33;1700114;83;21163;-63
2021/11/09 09:22:21;;;;;;;3.40;1.67;;;;;;;8.92;53.49;100944.43;1669018;85;21592;-63
2021/11/09 09:25:01;;;;;;;;;;;;;;;8.99;53.27;100949.81;1674764;85;21082;-61
2021/11/09 09:30:08;;;;;;;2.65;1.60;;;;;;;9.25;51.88;100955.89;1672244;85;21059;-62
2021/11/09 09:56:52;;;;;;;1.72;1.55;;;;;;;9.24;47.99;100962.25;1672227;85;21089;-61
2021/11/09 09:59:22;;;;;;;2.58;1.37;;;;;;;9.20;47.96;100956.16;1671592;85;21222;-63
2021/11/09 10:02:14;;;;;;;1.57;1.40;;;;;;;9.15;47.94;100954.06;1671821;85;21083;-62
2021/11/09 10:04:49;;;;;;;2.85;1.67;;;;;;;9.10;47.31;100952.50;1675967;85;20983;-63
2021/11/09 10:07:33;;;;;;;4.53;1.92;;;;;;;8.94;47.74;100948.25;1672652;85;21043;-63
2021/11/09 10:10:13;;;;;;;3.25;1.90;;;;;;;8.81;47.66;100935.59;1672062;85;21083;-63
2021/11/09 10:12:42;;;;;;;2.40;1.80;;;;;;;8.69;48.17;100951.84;1670897;85;21281;-61
2021/11/09 10:15:20;;;;;;;5.10;2.02;;;;;;;8.73;48.29;100959.77;1669810;85;21075;-62
2021/11/09 10:17:50;;;;;;;4.08;1.90;;;;;;;8.80;47.63;100961.18;1672590;85;20988;-62
2021/11/09 10:20:25;;;;;;;;;;;;;;;8.84;47.29;100955.25;1684165;83;21053;-63
2021/11/09 10:23:00;;;;;;;4.00;2.37;;;;;;;8.72;47.89;100956.80;1709360;83;20194;-62
2021/11/09 10:25:28;;;;;;;3.50;2.10;;;;;;;8.57;48.59;100958.20;1703101;83;21145;-63
2021/11/09 10:28:05;;;;;;;2.25;1.95;;;;;;;8.51;48.09;100963.79;1705017;83;21001;-62
2021/11/09 10:30:38;;;;;;;4.47;1.65;;;;;;;8.35;48.45;100960.81;1705162;83;21028;-62
2021/11/09 10:33:05;;;;;;;2.27;1.50;;;;;;;8.26;48.38;100969.97;1704885;83;20997;-63
2021/11/09 10:35:32;;;;;;;2.72;1.27;;;;;;;8.27;48.35;100975.61;1703484;83;21009;-62
2021/11/09 10:38:03;;;;;;;5.47;1.72;;;;;;;8.31;48.13;100978.23;1706678;83;21224;-63
2021/11/09 10:40:34;;;;;;;2.83;1.60;;;;;;;8.44;48.32;100980.75;1704178;83;21060;-61
2021/11/09 10:43:05;;;;;;;4.30;1.50;;;;;;;8.61;47.66;100992.04;1703390;83;21081;-63
2021/11/09 10:45:38;;;;;;;1.52;1.42;;;;;;;8.75;46.87;100990.64;1704577;83;21065;-61
2021/11/09 10:48:11;;;;;;;1.60;1.32;;;;;;;8.86;46.95;100987.99;1704332;83;21008;-63
2021/11/09 10:50:43;;;;;;;1.60;1.50;;;;;;;8.94;47.01;100990.52;1702089;83;21140;-63
2021/11/09 11:04:05;;;;;;;3.08;2.08;;;;;;;8.76;46.36;101020.37;1705697;83;21776;-62
2021/11/09 11:06:42;;;;;;;2.75;2.00;;;;;;;8.49;46.88;101025.94;1705112;83;21008;-63
2021/11/09 11:09:18;;;;;;;2.17;1.75;;;;;;;8.35;47.52;101020.92;1707311;83;21020;-63
2021/11/09 11:11:50;;;;;;;2.47;1.87;;;;;;;8.28;47.10;101012.00;1705198;83;21108;-64
2021/11/09 11:14:26;;;;;;;2.47;2.22;;;;;;;8.10;47.11;101023.08;1704988;83;21559;-63
2021/11/09 11:17:00;;;;;;;2.60;1.87;;;;;;;7.94;47.99;101020.61;1701917;83;21165;-63
2021/11/09 11:19:43;;;;;;;4.08;2.35;;;;;;;7.90;48.55;101033.48;1702455;83;21609;-62
2021/11/09 11:22:17;;;;;;;7.22;3.47;;;;;;;7.92;48.53;101027.96;1679105;83;21057;-63
2021/11/09 11:24:50;;;;;;;8.15;3.52;;;;;;;7.82;48.80;101011.72;1673248;85;21119;-62
2021/11/09 11:27:16;;;;;;;12.93;3.72;;;;;;;7.65;48.57;101023.06;1671856;85;21071;-62
2021/11/09 11:29:43;;;;;;;7.83;3.10;;;;;;;7.49;49.34;101036.09;1671039;85;21159;-64
2021/11/09 11:32:15;;;;;;;3.62;2.00;;;;;;;7.45;49.67;101033.94;1670249;85;21020;-64
2021/11/09 11:34:42;;;;;;;4.03;1.87;;;;;;;7.45;49.94;101029.45;1674758;83;21050;-63
2021/11/09 11:37:13;;;;;;;4.10;2.30;;;;;;;7.47;49.30;101027.94;1677055;85;20977;-63
2021/11/09 11:39:40;;;;;;;1.75;1.55;;;;;;;7.41;49.49;101037.48;1672899;85;21096;-63
2021/11/09 11:42:16;;;;;;;1.75;1.55;;;;;;;7.46;48.94;101027.09;1672441;85;22622;-63
2021/11/09 11:44:43;;;;;;;1.70;1.60;;;;;;;7.51;48.37;101035.91;1672949;85;20968;-64
2021/11/09 11:47:24;;;;;;;2.12;1.82;;;;;;;7.55;48.08;101042.52;1673338;85;20936;-63
2021/11/09 11:49:57;;;;;;;2.60;1.80;;;;;;;7.55;48.04;101037.17;1672720;85;21055;-62
2021/11/09 11:52:33;;;;;;;12.45;5.28;;;;;;;7.54;48.34;101051.03;1672708;85;21072;-63
2021/11/09 11:55:23;;;;;;;3.65;2.80;;;;;;;7.60;48.45;101057.49;1674464;85;21768;-64
2021/11/09 11:58:11;;;;;;;2.65;1.90;;;;;;;7.64;48.58;101060.61;1674531;84;21011;-63
2021/11/09 12:00:52;;;;;;;2.05;1.82;;;;;;;7.62;48.31;101066.12;1669298;85;21564;-62
2021/11/09 12:03:24;;;;;;;8.60;2.45;;;;;;;7.59;48.00;101073.69;1671801;85;21040;-64
2021/11/09 12:05:58;;;;;;;3.72;2.62;;;;;;;7.47;48.00;101079.96;1673714;85;20960;-63
2021/11/09 12:08:42;;;;;;;5.17;1.90;;;;;;;7.42;47.61;101080.99;1674197;85;21011;-65
2021/11/09 12:11:35;;;;;;;2.12;1.77;;;;;;;7.44;46.91;101081.14;1673542;85;20993;-63
2021/11/09 12:14:02;;;;;;;1.50;1.40;;;;;;;7.42;45.94;101073.84;1670724;85;21545;-62
2021/11/09 12:20:42;;;;;;;5.00;3.50;;;;;;;7.28;46.21;101072.77;1674736;81;21227;-64
2021/11/09 12:26:51;;;;;;;3.08;2.10;;;;;;;7.31;46.23;101105.75;1683541;84;20983;-62
2021/11/09 12:32:49;;;;;;;5.72;3.33;;;;;;;7.27;45.25;101121.77;1682134;84;21067;-63
2021/11/09 12:38:51;;;;;;;2.62;1.65;;;;;;;7.23;45.20;101120.50;1685141;84;21054;-64
2021/11/09 12:44:48;;;;;;;6.47;1.82;;;;;;;7.39;44.65;101132.89;1680555;84;20979;-62
2021/11/09 12:50:46;;;;;;;3.22;1.80;;;;;;;7.47;44.70;101132.80;1682829;84;21088;-64
2021/11/09 12:56:57;;;;;;;1.50;1.40;;;;;;;7.45;44.51;101141.50;1682265;84;21099;-62
2021/11/09 13:02:53;;;;;;;2.08;1.30;;;;;;;7.37;44.82;101145.55;1682825;84;21589;-62
2021/11/09 13:15:20;;;;;;;14.30;7.40;;;;;;;7.41;43.85;101164.72;1682942;84;21007;-62
2021/11/09 13:18:03;;;;;;;2.62;1.95;;;;;;;7.13;43.33;101172.72;1683204;84;21553;-62
2021/11/09 13:23:05;;;;;;;6.42;2.15;;;;;;;6.92;43.89;101186.67;1675561;83;21858;-64
2021/11/09 13:25:46;;;;;;;2.35;1.85;;;;;;;6.83;44.15;101189.02;1718746;82;21015;-62
2021/11/09 13:28:19;;;;;;;5.15;2.58;;;;;;;6.71;44.96;101199.23;1721345;82;21015;-62
2021/11/09 13:30:58;;;;;;;3.27;1.70;;;;;;;6.64;45.33;101205.77;1717020;82;20928;-62
2021/11/09 13:33:26;;;;;;;2.45;2.00;;;;;;;6.56;45.37;101191.64;1719043;82;20995;-63
2021/11/09 13:35:57;;;;;;;5.72;2.30;;;;;;;6.40;45.35;101202.65;1717187;82;21801;-63
2021/11/09 13:38:31;;;;;;;7.20;2.70;;;;;;;6.26;45.19;101208.70;1721526;82;20925;-62
2021/11/09 13:41:06;;;;;;;4.10;2.33;;;;;;;6.08;45.14;101220.84;1719293;82;20956;-62
2021/11/09 13:43:39;;;;;;;5.55;2.62;;;;;;;5.96;45.74;101233.15;1718315;82;21056;-62
2021/11/09 13:46:12;;;;;;;4.80;2.72;;;;;;;5.89;45.67;101228.16;1716234;82;21054;-62
2021/11/09 13:48:41;;;;;;;3.30;1.90;;;;;;;5.75;46.15;101239.45;1722641;82;21112;-61
2021/11/09 13:51:11;;;;;;;3.40;2.12;;;;;;;5.61;46.14;101239.61;1719591;82;21027;-63
2021/11/09 13:53:46;;;;;;;5.40;2.47;;;;;;;5.51;46.39;101246.91;1718025;82;21495;-62
2021/11/09 13:56:20;;;;;;;7.70;1.98;;;;;;;5.41;46.75;101254.52;1718300;82;21048;-65
2021/11/09 13:59:02;;;;;;;3.52;2.08;;;;;;;5.37;46.73;101251.02;1717671;82;21490;-62
2021/11/09 14:18:24;;;;;;;3.20;1.50;;;;;;;5.05;48.52;101283.12;1720382;82;20964;-62
2021/11/09 14:21:03;;;;;;;2.95;1.50;;;;;;;5.03;48.35;101297.91;1720723;81;21003;-63
2021/11/09 14:23:35;;;;;;;5.05;1.90;;;;;;;5.02;48.79;101303.38;1730797;80;21092;-63
2021/11/09 14:26:27;;;;;;;9.18;1.87;;;;;;;5.01;48.14;101305.22;1730364;82;21525;-62
2021/11/09 14:28:56;;;;;;;4.78;1.82;;;;;;;4.96;48.90;101313.33;1732913;82;21087;-62
2021/11/09 14:31:32;;;;;;;3.77;1.90;;;;;;;4.93;48.79;101318.95;1728897;82;21023;-63
2021/11/09 14:34:17;;;;;;;3.27;2.00;;;;;;;4.89;49.27;101319.78;1736558;82;20888;-63
2021/11/09 14:36:46;;;;;;;5.47;2.17;;;;;;;4.95;49.51;101307.19;1730410;82;21022;-62
2021/11/09 14:39:20;;;;;;;4.20;1.90;;;;;;;5.03;49.45;101327.66;1731182;82;20991;-64
2021/11/09 14:42:22;;;;;;;6.22;1.90;;;;;;;5.07;49.62;101324.52;1729019;82;22447;-61
2021/11/09 14:47:41;;;;;;;4.33;1.90;;;;;;;5.14;49.31;101339.34;1731677;82;21539;-63
2021/11/09 14:50:13;;;;;;;5.67;2.08;;;;;;;5.11;48.83;101339.66;1734459;80;21003;-62
2021/11/09 14:52:42;;;;;;;3.60;2.00;;;;;;;5.01;48.97;101342.42;1733891;82;20844;-63
2021/11/09 14:55:31;;;;;;;2.75;1.80;;;;;;;4.94;49.54;101361.31;1731242;81;21693;-62